createdAt,value
2022-11-24T00:01:05.501Z,12.00
2022-11-24T00:06:11.125Z,7.47
2022-11-24T00:11:16.892Z,12.97
2022-11-24T00:16:21.862Z,13.17
2022-11-24T00:21:25.901Z,4.63
2022-11-24T00:26:31.963Z,13.27
2022-11-24T00:31:36.926Z,7.20
2022-11-24T00:36:41.210Z,6.53
2022-11-24T00:41:46.698Z,11.83
2022-11-24T00:46:50.424Z,7.87
2022-11-24T00:51:53.873Z,16.20
2022-11-24T00:56:58.787Z,7.80
2022-11-24T01:02:02.320Z,9.27
2022-11-24T01:07:05.846Z,8.77
2022-11-24T01:12:10.810Z,8.47
2022-11-24T01:17:14.482Z,9.27
2022-11-24T01:22:18.259Z,9.53
2022-11-24T01:27:23.186Z,7.60
2022-11-24T01:32:26.866Z,9.23
2022-11-24T01:37:30.252Z,5.70
2022-11-24T01:42:41.717Z,9.30
2022-11-24T01:47:45.380Z,10.70
2022-11-24T01:52:51.041Z,5.60
2022-11-24T01:57:58.452Z,10.10
2022-11-24T02:03:02.017Z,7.47
2022-11-24T02:08:05.988Z,10.67
2022-11-24T02:13:11.079Z,13.30
2022-11-24T02:18:14.637Z,16.53
2022-11-24T02:23:23.201Z,7.60
2022-11-24T02:28:29.467Z,5.03
2022-11-24T02:33:34.383Z,6.83
2022-11-24T02:38:38.119Z,9.00
2022-11-24T02:43:44.534Z,9.73
2022-11-24T02:48:48.191Z,9.17
2022-11-24T02:53:51.724Z,7.40
2022-11-24T02:58:56.374Z,7.37
2022-11-24T03:03:59.922Z,8.67
2022-11-24T03:09:04.451Z,5.53
2022-11-24T03:14:09.595Z,7.13
2022-11-24T03:19:13.510Z,6.83
2022-11-24T03:24:17.272Z,8.40
2022-11-24T03:29:22.232Z,3.23
2022-11-24T03:34:26.309Z,9.10
2022-11-24T03:39:29.791Z,9.30
2022-11-24T03:44:35.046Z,3.37
2022-11-24T03:49:38.664Z,5.53
2022-11-24T03:54:42.899Z,3.07
2022-11-24T03:59:47.759Z,9.17
2022-11-24T04:04:52.767Z,5.73
2022-11-24T04:09:56.346Z,9.07
2022-11-24T04:15:01.602Z,6.20
2022-11-24T04:20:05.564Z,8.33
2022-11-24T04:25:10.297Z,8.27
2022-11-24T04:30:15.918Z,6.77
2022-11-24T04:35:19.612Z,4.40
2022-11-24T04:40:23.378Z,5.13
2022-11-24T04:45:28.636Z,6.23
2022-11-24T04:50:32.123Z,6.43
2022-11-24T04:55:35.676Z,3.27
2022-11-24T05:00:40.868Z,4.20
2022-11-24T05:05:44.897Z,6.67
2022-11-24T05:10:48.961Z,7.67
2022-11-24T05:15:54.128Z,6.10
2022-11-24T05:20:59.039Z,3.10
2022-11-24T05:26:03.602Z,7.50
2022-11-24T05:31:08.874Z,7.57
2022-11-24T05:36:33.418Z,8.37
2022-11-24T05:41:36.971Z,11.23
2022-11-24T05:46:41.618Z,8.97
2022-11-24T05:51:45.132Z,5.03
2022-11-24T05:56:48.460Z,6.37
2022-11-24T06:01:53.696Z,4.60
2022-11-24T06:06:56.955Z,6.73
2022-11-24T06:12:00.202Z,6.57
2022-11-24T06:17:05.524Z,5.50
2022-11-24T06:22:08.893Z,9.03
2022-11-24T06:27:12.394Z,3.03
2022-11-24T06:32:17.067Z,8.93
2022-11-24T06:37:20.216Z,7.60
2022-11-24T06:42:23.463Z,6.97
2022-11-24T06:47:28.147Z,4.20
2022-11-24T06:52:31.442Z,7.93
2022-11-24T06:57:35.284Z,7.93
2022-11-24T07:02:45.657Z,6.83
2022-11-24T07:07:50.967Z,4.87
2022-11-24T07:12:54.351Z,8.20
2022-11-24T07:17:58.931Z,3.10
2022-11-24T07:23:02.112Z,6.17
2022-11-24T07:28:05.459Z,3.93
2022-11-24T07:33:10.247Z,6.67
2022-11-24T07:38:13.555Z,4.23
2022-11-24T07:43:20.148Z,3.40
2022-11-24T07:48:27.219Z,3.77
2022-11-24T07:53:30.602Z,5.60
2022-11-24T07:58:34.758Z,4.93
2022-11-24T08:03:39.482Z,7.13
2022-11-24T08:08:42.807Z,5.00
2022-11-24T08:13:46.907Z,5.50
2022-11-24T08:18:52.113Z,8.83
2022-11-24T08:23:56.121Z,2.73
2022-11-24T08:29:00.097Z,10.13
2022-11-24T08:34:05.292Z,4.70
2022-11-24T08:39:08.606Z,7.27
2022-11-24T08:44:15.301Z,7.10
2022-11-24T08:49:19.985Z,7.30
2022-11-24T08:54:23.226Z,7.53
2022-11-24T08:59:26.503Z,6.07
2022-11-24T09:04:31.252Z,3.70
2022-11-24T09:09:34.599Z,4.80
2022-11-24T09:14:37.803Z,2.57
2022-11-24T09:19:42.276Z,4.30
2022-11-24T09:24:45.733Z,4.23
2022-11-24T09:29:49.077Z,2.93
2022-11-24T09:34:53.765Z,2.90
2022-11-24T09:39:57.218Z,1.63
2022-11-24T09:45:30.396Z,6.33
2022-11-24T09:50:45.266Z,4.60
2022-11-24T09:55:49.787Z,4.03
2022-11-24T10:00:53.867Z,7.27
2022-11-24T10:05:59.228Z,5.93
2022-11-24T10:11:04.144Z,6.03
2022-11-24T10:16:12.257Z,4.43
2022-11-24T10:21:26.268Z,5.43
2022-11-24T10:26:33.255Z,5.43
2022-11-24T10:31:37.542Z,6.20
2022-11-24T10:36:45.879Z,4.47
2022-11-24T10:41:52.126Z,4.23
2022-11-24T10:46:55.433Z,5.07
2022-11-24T10:52:06.013Z,2.80
2022-11-24T10:57:09.290Z,7.17
2022-11-24T11:02:29.805Z,4.80
2022-11-24T11:07:34.543Z,1.93
2022-11-24T11:12:45.416Z,2.33
2022-11-24T11:17:50.406Z,5.47
2022-11-24T11:22:56.021Z,2.27
2022-11-24T11:28:17.788Z,2.70
2022-11-24T11:38:48.275Z,3.30
2022-11-24T11:43:53.918Z,1.87
2022-11-24T11:48:57.279Z,2.33
2022-11-24T11:54:06.142Z,3.00
2022-11-24T11:59:23.326Z,2.90
2022-11-24T12:04:32.640Z,4.33
2022-11-24T12:09:43.738Z,3.57
2022-11-24T12:14:53.824Z,2.87
2022-11-24T12:20:04.485Z,3.07
2022-11-24T12:25:18.764Z,2.87
2022-11-24T12:30:23.263Z,5.07
2022-11-24T12:35:29.973Z,4.03
2022-11-24T12:40:46.940Z,2.77
2022-11-24T12:45:56.288Z,5.10
2022-11-24T12:50:59.892Z,4.57
2022-11-24T12:56:08.629Z,3.70
2022-11-24T13:01:16.723Z,4.17
2022-11-24T13:06:23.586Z,7.90
2022-11-24T13:11:39.272Z,2.37
2022-11-24T13:22:18.178Z,2.60
2022-11-24T13:27:39.283Z,3.13
2022-11-24T13:33:01.255Z,4.00
2022-11-24T13:38:05.376Z,4.07
2022-11-24T13:43:21.201Z,5.67
2022-11-24T13:48:43.157Z,2.73
2022-11-24T13:53:49.016Z,2.77
2022-11-24T13:58:53.392Z,3.23
2022-11-24T14:04:30.158Z,4.83
2022-11-24T14:09:26.799Z,6.20
2022-11-24T14:14:30.247Z,5.40
2022-11-24T14:19:33.480Z,4.67
2022-11-24T14:24:41.533Z,2.90
2022-11-24T14:29:55.417Z,5.20
2022-11-24T14:34:58.839Z,3.87
2022-11-24T14:40:03.575Z,3.33
2022-11-24T14:45:07.042Z,3.20
2022-11-24T14:50:12.781Z,3.00
2022-11-24T14:55:28.306Z,7.87
2022-11-24T15:00:32.805Z,4.70
2022-11-24T15:05:51.806Z,3.13
2022-11-24T15:11:01.675Z,4.10
2022-11-24T15:16:06.825Z,5.73
2022-11-24T15:21:15.569Z,7.10
2022-11-24T15:26:35.471Z,8.50
2022-11-24T15:31:47.925Z,8.03
2022-11-24T15:36:55.611Z,11.10
2022-11-24T15:42:00.275Z,9.10
2022-11-24T15:47:03.548Z,13.30
2022-11-24T15:52:07.025Z,9.23
2022-11-24T15:57:12.528Z,4.30
2022-11-24T16:02:15.828Z,4.27
2022-11-24T16:07:19.184Z,5.63
2022-11-24T16:12:25.216Z,4.17
2022-11-24T16:17:28.400Z,5.63
2022-11-24T16:22:32.168Z,3.57
2022-11-24T16:27:36.727Z,4.70
2022-11-24T16:32:40.335Z,4.07
2022-11-24T16:37:44.415Z,10.67
2022-11-24T16:42:49.023Z,3.50
2022-11-24T16:47:52.336Z,3.00
2022-11-24T16:52:55.588Z,8.03
2022-11-24T16:58:00.325Z,8.03
2022-11-24T17:03:03.620Z,9.50
2022-11-24T17:08:07.029Z,3.73
2022-11-24T17:13:11.756Z,9.53
2022-11-24T17:18:24.515Z,5.83
2022-11-24T17:23:29.418Z,3.80
2022-11-24T17:28:34.925Z,5.27
2022-11-24T17:33:38.350Z,5.90
2022-11-24T17:38:41.574Z,8.57
2022-11-24T17:43:49.290Z,5.03
2022-11-24T17:48:52.816Z,6.67
2022-11-24T17:53:57.379Z,5.23
2022-11-24T17:59:02.132Z,4.00
2022-11-24T18:04:05.431Z,13.17
2022-11-24T18:09:08.682Z,16.17
2022-11-24T18:14:13.469Z,46.53
2022-11-24T18:19:17.275Z,26.20
2022-11-24T18:24:24.045Z,19.07
2022-11-24T18:29:28.948Z,35.07
2022-11-24T18:34:32.360Z,35.97
2022-11-24T18:39:35.706Z,33.03
2022-11-24T18:44:42.422Z,26.30
2022-11-24T18:49:45.751Z,8.70
2022-11-24T18:54:49.100Z,18.07
2022-11-24T18:59:54.034Z,19.60
2022-11-24T19:04:57.245Z,24.57
2022-11-24T19:10:00.508Z,14.13
2022-11-24T19:15:05.651Z,13.47
2022-11-24T19:20:09.271Z,9.57
2022-11-24T19:25:12.525Z,8.93
2022-11-24T19:30:17.709Z,8.53
2022-11-24T19:35:21.290Z,3.77
2022-11-24T19:40:24.914Z,8.47
2022-11-24T19:45:30.011Z,10.60
2022-11-24T19:50:33.425Z,4.43
2022-11-24T19:55:36.650Z,7.63
2022-11-24T20:00:41.312Z,15.50
2022-11-24T20:05:44.446Z,7.57
2022-11-24T20:10:47.659Z,9.57
2022-11-24T20:15:52.263Z,3.60
2022-11-24T20:20:55.478Z,6.70
2022-11-24T20:26:04.312Z,5.47
2022-11-24T20:31:10.125Z,6.13
2022-11-24T20:36:14.279Z,3.67
2022-11-24T20:41:18.459Z,6.20
2022-11-24T20:46:24.475Z,2.57
2022-11-24T20:51:28.740Z,4.23
2022-11-24T20:56:34.001Z,3.80
2022-11-24T21:01:40.530Z,8.20
2022-11-24T21:06:45.430Z,8.77
2022-11-24T21:11:49.281Z,6.80
2022-11-24T21:16:54.180Z,8.20
2022-11-24T21:21:57.547Z,3.97
2022-11-24T21:27:01.006Z,4.93
2022-11-24T21:32:06.979Z,11.37
2022-11-24T21:37:10.567Z,14.10
2022-11-24T21:42:14.614Z,9.73
2022-11-24T21:47:19.542Z,17.33
2022-11-24T21:52:25.772Z,11.60
2022-11-24T21:57:29.792Z,7.63
2022-11-24T22:02:34.751Z,7.33
2022-11-24T22:07:38.435Z,4.17
2022-11-24T22:12:42.039Z,7.97
2022-11-24T22:17:47.093Z,10.63
2022-11-24T22:22:50.675Z,8.33
2022-11-24T22:27:54.285Z,7.33
2022-11-24T22:32:59.294Z,15.63
2022-11-24T22:38:02.908Z,4.60
2022-11-24T22:43:06.804Z,7.77
2022-11-24T22:48:11.824Z,5.67
2022-11-24T22:53:15.568Z,3.73
2022-11-24T22:58:19.320Z,4.53
2022-11-24T23:03:34.538Z,10.27
2022-11-24T23:08:38.295Z,5.23
2022-11-24T23:13:42.279Z,7.97
2022-11-24T23:18:54.045Z,9.77
2022-11-24T23:23:59.256Z,7.03
2022-11-24T23:29:02.937Z,6.20
2022-11-24T23:34:08.114Z,7.37
2022-11-24T23:39:13.340Z,5.43
2022-11-24T23:44:16.890Z,4.60
2022-11-24T23:49:21.942Z,10.87
2022-11-24T23:54:25.614Z,8.37
2022-11-24T23:59:29.483Z,5.83
